TimePDT,TemperatureF,Dew PointF,Humidity,Sea Level PressureIn,VisibilityMPH,Wind Direction,Wind SpeedMPH,Gust SpeedMPH,PrecipitationIn,Events,Conditions,WindDirDegrees,DateUTC
12:52 AM,57.9,39.0,49,29.82,-9999.0,Calm,Calm,-,N/A,,Unknown,0,2012-09-27 07:52:00
1:52 AM,57.0,37.0,47,29.83,-9999.0,Calm,Calm,-,N/A,,Unknown,0,2012-09-27 08:52:00
2:52 AM,52.0,37.0,57,29.84,-9999.0,Calm,Calm,-,N/A,,Unknown,0,2012-09-27 09:52:00
3:52 AM,51.1,37.0,59,29.84,-9999.0,NNE,4.6,-,N/A,,Unknown,30,2012-09-27 10:52:00
4:52 AM,54.0,36.0,51,29.83,-9999.0,NE,3.5,-,N/A,,Unknown,50,2012-09-27 11:52:00
5:52 AM,54.0,37.0,53,29.84,-9999.0,Calm,Calm,-,N/A,,Unknown,0,2012-09-27 12:52:00
6:52 AM,51.1,37.9,61,29.87,-9999.0,NE,3.5,-,N/A,,Unknown,40,2012-09-27 13:52:00
7:52 AM,57.9,41.0,53,29.88,-9999.0,Calm,Calm,-,N/A,,Unknown,0,2012-09-27 14:52:00
8:52 AM,75.0,42.1,31,29.86,-9999.0,Calm,Calm,-,N/A,,Unknown,0,2012-09-27 15:52:00
9:52 AM,84.9,44.1,24,29.85,-9999.0,ENE,15.0,21.9,N/A,,Unknown,70,2012-09-27 16:52:00
10:52 AM,87.1,39.0,18,29.86,-9999.0,ENE,15.0,23.0,N/A,,Unknown,60,2012-09-27 17:52:00
11:52 AM,87.1,37.9,18,29.85,-9999.0,East,9.2,24.2,N/A,,Unknown,80,2012-09-27 18:52:00
12:52 PM,91.0,39.0,16,29.83,-9999.0,East,8.1,19.6,N/A,,Unknown,100,2012-09-27 19:52:00
1:52 PM,88.0,45.0,22,29.81,-9999.0,SW,19.6,23.0,N/A,,Unknown,230,2012-09-27 20:52:00
2:52 PM,87.1,45.0,23,29.82,-9999.0,SW,12.7,18.4,N/A,,Unknown,230,2012-09-27 21:52:00
3:52 PM,86.0,42.1,21,29.82,-9999.0,SW,13.8,-,N/A,,Unknown,230,2012-09-27 22:52:00
4:52 PM,84.9,41.0,21,29.82,-9999.0,SW,10.4,-,N/A,,Unknown,230,2012-09-27 23:52:00
5:52 PM,82.0,45.0,27,29.83,-9999.0,SW,8.1,-,N/A,,Unknown,230,2012-09-28 00:52:00
6:52 PM,77.0,42.1,29,29.86,-9999.0,West,3.5,-,N/A,,Unknown,270,2012-09-28 01:52:00
7:52 PM,66.0,42.1,42,29.89,-9999.0,Calm,Calm,-,N/A,,Unknown,0,2012-09-28 02:52:00
8:52 PM,64.0,42.1,45,29.88,-9999.0,NE,3.5,-,N/A,,Unknown,40,2012-09-28 03:52:00
9:52 PM,63.0,41.0,45,29.88,-9999.0,NE,3.5,-,N/A,,Unknown,50,2012-09-28 04:52:00
10:52 PM,59.0,41.0,51,29.89,-9999.0,ENE,5.8,-,N/A,,Unknown,60,2012-09-28 05:52:00
11:52 PM,57.9,41.0,53,29.88,-9999.0,Calm,Calm,-,N/A,,Unknown,0,2012-09-28 06:52:00